sensor_id;sensor_type;location;lat;lon;timestamp;P1;durP1;ratioP1;P2;durP2;ratioP2
40611;SDS011;26317;44.894;20.286;2023-02-08T00:02:20;50.33;;;38.65;;
40611;SDS011;26317;44.894;20.286;2023-02-08T00:04:50;42.05;;;18.35;;
40611;SDS011;26317;44.894;20.286;2023-02-08T00:07:20;49.60;;;38.88;;
40611;SDS011;26317;44.894;20.286;2023-02-08T00:12:23;58.55;;;39.10;;
40611;SDS011;26317;44.894;20.286;2023-02-08T00:14:53;52.40;;;38.08;;
40611;SDS011;26317;44.894;20.286;2023-02-08T00:17:23;46.70;;;19.58;;
40611;SDS011;26317;44.894;20.286;2023-02-08T00:19:54;60.25;;;39.85;;
40611;SDS011;26317;44.894;20.286;2023-02-08T00:22:24;55.90;;;39.90;;
40611;SDS011;26317;44.894;20.286;2023-02-08T00:24:57;55.63;;;38.47;;
40611;SDS011;26317;44.894;20.286;2023-02-08T00:27:27;53.30;;;39.85;;
40611;SDS011;26317;44.894;20.286;2023-02-08T00:29:57;51.80;;;38.47;;
40611;SDS011;26317;44.894;20.286;2023-02-08T00:32:29;51.88;;;38.63;;
40611;SDS011;26317;44.894;20.286;2023-02-08T00:34:59;47.40;;;20.70;;
40611;SDS011;26317;44.894;20.286;2023-02-08T00:37:30;50.90;;;37.10;;
40611;SDS011;26317;44.894;20.286;2023-02-08T00:40:03;46.55;;;20.75;;
40611;SDS011;26317;44.894;20.286;2023-02-08T00:42:33;52.10;;;39.22;;
40611;SDS011;26317;44.894;20.286;2023-02-08T00:45:04;53.17;;;39.28;;
40611;SDS011;26317;44.894;20.286;2023-02-08T00:47:34;41.25;;;20.13;;
40611;SDS011;26317;44.894;20.286;2023-02-08T00:50:04;34.20;;;18.95;;
40611;SDS011;26317;44.894;20.286;2023-02-08T00:52:35;51.80;;;38.28;;
40611;SDS011;26317;44.894;20.286;2023-02-08T00:55:08;49.55;;;37.17;;
40611;SDS011;26317;44.894;20.286;2023-02-08T00:57:38;48.78;;;37.22;;
40611;SDS011;26317;44.894;20.286;2023-02-08T01:00:10;35.60;;;17.98;;
40611;SDS011;26317;44.894;20.286;2023-02-08T01:02:41;48.70;;;38.28;;
40611;SDS011;26317;44.894;20.286;2023-02-08T01:05:11;43.53;;;20.58;;
40611;SDS011;26317;44.894;20.286;2023-02-08T01:07:41;47.92;;;36.92;;
40611;SDS011;26317;44.894;20.286;2023-02-08T01:10:14;38.33;;;18.88;;
40611;SDS011;26317;44.894;20.286;2023-02-08T01:12:44;44.40;;;19.60;;
40611;SDS011;26317;44.894;20.286;2023-02-08T01:15:14;37.75;;;18.10;;
40611;SDS011;26317;44.894;20.286;2023-02-08T01:17:44;44.65;;;18.73;;
40611;SDS011;26317;44.894;20.286;2023-02-08T01:20:14;54.25;;;38.92;;
40611;SDS011;26317;44.894;20.286;2023-02-08T01:22:45;39.17;;;20.30;;
40611;SDS011;26317;44.894;20.286;2023-02-08T01:25:17;46.53;;;21.00;;
40611;SDS011;26317;44.894;20.286;2023-02-08T01:27:48;50.45;;;39.25;;
40611;SDS011;26317;44.894;20.286;2023-02-08T01:30:18;52.13;;;38.25;;
40611;SDS011;26317;44.894;20.286;2023-02-08T01:32:48;38.85;;;18.00;;
40611;SDS011;26317;44.894;20.286;2023-02-08T01:35:18;40.17;;;18.23;;
40611;SDS011;26317;44.894;20.286;2023-02-08T01:37:48;40.22;;;18.55;;
40611;SDS011;26317;44.894;20.286;2023-02-08T01:40:21;39.85;;;20.17;;
40611;SDS011;26317;44.894;20.286;2023-02-08T01:42:51;50.13;;;19.95;;
40611;SDS011;26317;44.894;20.286;2023-02-08T01:45:24;38.88;;;16.08;;
40611;SDS011;26317;44.894;20.286;2023-02-08T01:47:58;36.67;;;17.98;;
40611;SDS011;26317;44.894;20.286;2023-02-08T01:50:39;48.35;;;36.47;;
40611;SDS011;26317;44.894;20.286;2023-02-08T01:53:15;45.42;;;34.70;;
40611;SDS011;26317;44.894;20.286;2023-02-08T01:55:50;41.92;;;19.27;;
40611;SDS011;26317;44.894;20.286;2023-02-08T01:58:24;49.30;;;36.03;;
40611;SDS011;26317;44.894;20.286;2023-02-08T02:00:57;45.35;;;35.55;;
40611;SDS011;26317;44.894;20.286;2023-02-08T02:03:28;44.67;;;34.65;;
40611;SDS011;26317;44.894;20.286;2023-02-08T02:06:00;32.72;;;16.98;;
40611;SDS011;26317;44.894;20.286;2023-02-08T02:08:37;40.30;;;17.35;;
40611;SDS011;26317;44.894;20.286;2023-02-08T02:11:16;36.97;;;16.02;;
40611;SDS011;26317;44.894;20.286;2023-02-08T02:13:46;46.15;;;33.30;;
40611;SDS011;26317;44.894;20.286;2023-02-08T02:16:17;49.13;;;34.75;;
40611;SDS011;26317;44.894;20.286;2023-02-08T02:18:47;51.83;;;34.65;;
40611;SDS011;26317;44.894;20.286;2023-02-08T02:21:24;31.77;;;17.23;;
40611;SDS011;26317;44.894;20.286;2023-02-08T02:24:10;38.95;;;16.75;;
40611;SDS011;26317;44.894;20.286;2023-02-08T02:27:11;44.53;;;34.33;;
40611;SDS011;26317;44.894;20.286;2023-02-08T02:30:08;48.83;;;34.50;;
40611;SDS011;26317;44.894;20.286;2023-02-08T02:33:09;44.38;;;35.03;;
40611;SDS011;26317;44.894;20.286;2023-02-08T02:36:01;37.80;;;18.20;;
40611;SDS011;26317;44.894;20.286;2023-02-08T02:38:40;45.15;;;20.00;;
40611;SDS011;26317;44.894;20.286;2023-02-08T02:41:18;43.95;;;18.95;;
40611;SDS011;26317;44.894;20.286;2023-02-08T02:44:09;56.63;;;40.33;;
40611;SDS011;26317;44.894;20.286;2023-02-08T02:46:51;64.57;;;41.25;;
40611;SDS011;26317;44.894;20.286;2023-02-08T02:49:31;46.65;;;37.33;;
40611;SDS011;26317;44.894;20.286;2023-02-08T02:52:07;50.97;;;35.58;;
40611;SDS011;26317;44.894;20.286;2023-02-08T02:54:41;50.20;;;37.38;;
40611;SDS011;26317;44.894;20.286;2023-02-08T02:57:15;46.75;;;35.85;;
40611;SDS011;26317;44.894;20.286;2023-02-08T02:59:50;50.67;;;36.40;;
40611;SDS011;26317;44.894;20.286;2023-02-08T03:02:20;45.97;;;33.95;;
40611;SDS011;26317;44.894;20.286;2023-02-08T03:04:54;45.63;;;34.75;;
40611;SDS011;26317;44.894;20.286;2023-02-08T03:07:36;48.45;;;37.45;;
40611;SDS011;26317;44.894;20.286;2023-02-08T03:10:31;46.20;;;36.60;;
40611;SDS011;26317;44.894;20.286;2023-02-08T03:13:21;51.38;;;37.45;;
40611;SDS011;26317;44.894;20.286;2023-02-08T03:16:02;45.97;;;19.48;;
40611;SDS011;26317;44.894;20.286;2023-02-08T03:18:46;38.45;;;19.17;;
40611;SDS011;26317;44.894;20.286;2023-02-08T03:21:34;43.55;;;34.15;;
40611;SDS011;26317;44.894;20.286;2023-02-08T03:24:13;37.97;;;18.77;;
40611;SDS011;26317;44.894;20.286;2023-02-08T03:26:51;45.33;;;34.95;;
40611;SDS011;26317;44.894;20.286;2023-02-08T03:29:27;46.25;;;34.83;;
40611;SDS011;26317;44.894;20.286;2023-02-08T03:32:07;46.97;;;36.30;;
40611;SDS011;26317;44.894;20.286;2023-02-08T03:34:42;50.67;;;37.45;;
40611;SDS011;26317;44.894;20.286;2023-02-08T03:37:20;49.28;;;37.47;;
40611;SDS011;26317;44.894;20.286;2023-02-08T03:39:55;44.38;;;35.65;;
40611;SDS011;26317;44.894;20.286;2023-02-08T03:42:30;49.22;;;36.30;;
40611;SDS011;26317;44.894;20.286;2023-02-08T03:45:03;38.55;;;18.63;;
40611;SDS011;26317;44.894;20.286;2023-02-08T03:47:38;35.03;;;17.55;;
40611;SDS011;26317;44.894;20.286;2023-02-08T03:50:13;43.22;;;33.95;;
40611;SDS011;26317;44.894;20.286;2023-02-08T03:52:49;47.88;;;34.70;;
40611;SDS011;26317;44.894;20.286;2023-02-08T03:55:21;44.58;;;34.65;;
40611;SDS011;26317;44.894;20.286;2023-02-08T03:57:55;36.70;;;17.02;;
40611;SDS011;26317;44.894;20.286;2023-02-08T04:00:30;33.90;;;17.70;;
40611;SDS011;26317;44.894;20.286;2023-02-08T04:03:08;38.72;;;17.77;;
40611;SDS011;26317;44.894;20.286;2023-02-08T04:05:42;44.22;;;33.92;;
40611;SDS011;26317;44.894;20.286;2023-02-08T04:08:15;42.13;;;34.15;;
40611;SDS011;26317;44.894;20.286;2023-02-08T04:10:45;35.80;;;15.80;;
40611;SDS011;26317;44.894;20.286;2023-02-08T04:13:16;36.63;;;18.10;;
40611;SDS011;26317;44.894;20.286;2023-02-08T04:15:46;35.45;;;16.23;;
40611;SDS011;26317;44.894;20.286;2023-02-08T04:18:16;32.00;;;15.95;;
40611;SDS011;26317;44.894;20.286;2023-02-08T04:20:46;32.83;;;16.20;;
40611;SDS011;26317;44.894;20.286;2023-02-08T04:23:19;39.35;;;18.92;;
40611;SDS011;26317;44.894;20.286;2023-02-08T04:25:50;42.40;;;34.83;;
40611;SDS011;26317;44.894;20.286;2023-02-08T04:28:20;39.35;;;18.98;;
40611;SDS011;26317;44.894;20.286;2023-02-08T04:30:50;44.72;;;34.80;;
40611;SDS011;26317;44.894;20.286;2023-02-08T04:33:20;37.63;;;18.13;;
40611;SDS011;26317;44.894;20.286;2023-02-08T04:35:50;34.35;;;16.83;;
40611;SDS011;26317;44.894;20.286;2023-02-08T04:38:23;41.17;;;19.60;;
40611;SDS011;26317;44.894;20.286;2023-02-08T04:40:53;42.05;;;18.60;;
40611;SDS011;26317;44.894;20.286;2023-02-08T04:43:23;42.83;;;19.92;;
40611;SDS011;26317;44.894;20.286;2023-02-08T04:45:53;38.33;;;18.45;;
40611;SDS011;26317;44.894;20.286;2023-02-08T04:48:24;38.55;;;18.98;;
40611;SDS011;26317;44.894;20.286;2023-02-08T04:50:54;45.00;;;21.00;;
40611;SDS011;26317;44.894;20.286;2023-02-08T04:53:27;50.45;;;37.75;;
40611;SDS011;26317;44.894;20.286;2023-02-08T04:55:57;38.50;;;19.05;;
40611;SDS011;26317;44.894;20.286;2023-02-08T04:58:27;36.05;;;17.02;;
40611;SDS011;26317;44.894;20.286;2023-02-08T05:00:57;38.92;;;19.77;;
40611;SDS011;26317;44.894;20.286;2023-02-08T05:03:27;37.55;;;17.65;;
40611;SDS011;26317;44.894;20.286;2023-02-08T05:05:58;43.67;;;21.45;;
40611;SDS011;26317;44.894;20.286;2023-02-08T05:08:31;48.42;;;37.00;;
40611;SDS011;26317;44.894;20.286;2023-02-08T05:11:01;48.17;;;37.17;;
40611;SDS011;26317;44.894;20.286;2023-02-08T05:13:31;53.45;;;38.97;;
40611;SDS011;26317;44.894;20.286;2023-02-08T05:16:01;48.67;;;20.35;;
40611;SDS011;26317;44.894;20.286;2023-02-08T05:18:31;51.58;;;20.08;;
40611;SDS011;26317;44.894;20.286;2023-02-08T05:21:01;40.42;;;20.75;;
40611;SDS011;26317;44.894;20.286;2023-02-08T05:23:35;47.30;;;36.35;;
40611;SDS011;26317;44.894;20.286;2023-02-08T05:26:06;35.85;;;17.80;;
40611;SDS011;26317;44.894;20.286;2023-02-08T05:28:36;48.85;;;37.40;;
40611;SDS011;26317;44.894;20.286;2023-02-08T05:31:08;49.78;;;36.97;;
40611;SDS011;26317;44.894;20.286;2023-02-08T05:33:40;49.92;;;37.05;;
40611;SDS011;26317;44.894;20.286;2023-02-08T05:36:10;50.05;;;37.95;;
40611;SDS011;26317;44.894;20.286;2023-02-08T05:38:43;46.83;;;35.85;;
40611;SDS011;26317;44.894;20.286;2023-02-08T05:41:13;47.20;;;36.38;;
40611;SDS011;26317;44.894;20.286;2023-02-08T05:46:14;49.22;;;37.08;;
40611;SDS011;26317;44.894;20.286;2023-02-08T05:48:44;48.78;;;38.40;;
40611;SDS011;26317;44.894;20.286;2023-02-08T05:53:49;48.83;;;37.85;;
40611;SDS011;26317;44.894;20.286;2023-02-08T05:56:19;49.70;;;38.35;;
40611;SDS011;26317;44.894;20.286;2023-02-08T05:58:49;39.17;;;20.23;;
40611;SDS011;26317;44.894;20.286;2023-02-08T06:01:19;51.50;;;40.13;;
40611;SDS011;26317;44.894;20.286;2023-02-08T06:03:49;50.45;;;39.05;;
40611;SDS011;26317;44.894;20.286;2023-02-08T06:06:20;55.13;;;40.63;;
40611;SDS011;26317;44.894;20.286;2023-02-08T06:08:52;42.60;;;20.77;;
40611;SDS011;26317;44.894;20.286;2023-02-08T06:11:22;51.78;;;38.78;;
40611;SDS011;26317;44.894;20.286;2023-02-08T06:13:53;51.00;;;39.92;;
40611;SDS011;26317;44.894;20.286;2023-02-08T06:16:26;50.22;;;39.35;;
40611;SDS011;26317;44.894;20.286;2023-02-08T06:18:56;54.65;;;44.15;;
40611;SDS011;26317;44.894;20.286;2023-02-08T06:21:26;46.22;;;22.40;;
40611;SDS011;26317;44.894;20.286;2023-02-08T06:24:01;55.20;;;23.70;;
40611;SDS011;26317;44.894;20.286;2023-02-08T06:26:32;51.72;;;37.97;;
40611;SDS011;26317;44.894;20.286;2023-02-08T06:29:02;56.53;;;41.95;;
40611;SDS011;26317;44.894;20.286;2023-02-08T06:31:33;49.95;;;41.00;;
40611;SDS011;26317;44.894;20.286;2023-02-08T06:34:03;52.20;;;22.98;;
40611;SDS011;26317;44.894;20.286;2023-02-08T06:36:33;45.65;;;20.58;;
40611;SDS011;26317;44.894;20.286;2023-02-08T06:39:06;50.63;;;24.42;;
40611;SDS011;26317;44.894;20.286;2023-02-08T06:41:39;65.05;;;45.22;;
40611;SDS011;26317;44.894;20.286;2023-02-08T06:44:09;50.28;;;25.10;;
40611;SDS011;26317;44.894;20.286;2023-02-08T06:46:39;48.47;;;22.60;;
40611;SDS011;26317;44.894;20.286;2023-02-08T06:49:09;57.08;;;43.72;;
40611;SDS011;26317;44.894;20.286;2023-02-08T06:51:40;57.25;;;44.28;;
40611;SDS011;26317;44.894;20.286;2023-02-08T06:54:12;52.78;;;23.30;;
40611;SDS011;26317;44.894;20.286;2023-02-08T06:56:43;61.85;;;46.83;;
40611;SDS011;26317;44.894;20.286;2023-02-08T06:59:14;66.68;;;50.83;;
40611;SDS011;26317;44.894;20.286;2023-02-08T07:01:44;54.25;;;26.55;;
40611;SDS011;26317;44.894;20.286;2023-02-08T07:04:14;55.78;;;26.23;;
40611;SDS011;26317;44.894;20.286;2023-02-08T07:06:46;64.20;;;48.78;;
40611;SDS011;26317;44.894;20.286;2023-02-08T07:09:19;54.22;;;43.38;;
40611;SDS011;26317;44.894;20.286;2023-02-08T07:11:50;49.92;;;41.20;;
40611;SDS011;26317;44.894;20.286;2023-02-08T07:14:20;58.35;;;43.67;;
40611;SDS011;26317;44.894;20.286;2023-02-08T07:16:50;39.58;;;19.98;;
40611;SDS011;26317;44.894;20.286;2023-02-08T07:19:21;46.35;;;37.08;;
40611;SDS011;26317;44.894;20.286;2023-02-08T07:21:52;51.80;;;41.53;;
40611;SDS011;26317;44.894;20.286;2023-02-08T07:24:24;55.20;;;41.35;;
40611;SDS011;26317;44.894;20.286;2023-02-08T07:26:55;60.13;;;45.25;;
40611;SDS011;26317;44.894;20.286;2023-02-08T07:29:25;56.38;;;43.42;;
40611;SDS011;26317;44.894;20.286;2023-02-08T07:31:57;50.70;;;40.45;;
40611;SDS011;26317;44.894;20.286;2023-02-08T07:34:28;56.67;;;44.22;;
40611;SDS011;26317;44.894;20.286;2023-02-08T07:37:00;48.13;;;37.90;;
40611;SDS011;26317;44.894;20.286;2023-02-08T07:39:33;57.53;;;45.33;;
40611;SDS011;26317;44.894;20.286;2023-02-08T07:42:03;52.03;;;41.92;;
40611;SDS011;26317;44.894;20.286;2023-02-08T07:44:42;46.28;;;38.42;;
40611;SDS011;26317;44.894;20.286;2023-02-08T07:47:13;48.65;;;39.75;;
40611;SDS011;26317;44.894;20.286;2023-02-08T07:49:43;50.08;;;20.80;;
40611;SDS011;26317;44.894;20.286;2023-02-08T07:52:13;51.80;;;40.70;;
40611;SDS011;26317;44.894;20.286;2023-02-08T07:54:45;50.45;;;38.22;;
40611;SDS011;26317;44.894;20.286;2023-02-08T07:57:15;45.35;;;36.95;;
40611;SDS011;26317;44.894;20.286;2023-02-08T07:59:47;55.03;;;43.58;;
40611;SDS011;26317;44.894;20.286;2023-02-08T08:02:19;49.08;;;39.97;;
40611;SDS011;26317;44.894;20.286;2023-02-08T08:04:49;43.53;;;21.25;;
40611;SDS011;26317;44.894;20.286;2023-02-08T08:07:20;45.58;;;35.92;;
40611;SDS011;26317;44.894;20.286;2023-02-08T08:09:52;48.33;;;38.65;;
40611;SDS011;26317;44.894;20.286;2023-02-08T08:12:23;46.08;;;36.10;;
40611;SDS011;26317;44.894;20.286;2023-02-08T08:14:53;40.28;;;17.45;;
40611;SDS011;26317;44.894;20.286;2023-02-08T08:17:23;47.72;;;36.45;;
40611;SDS011;26317;44.894;20.286;2023-02-08T08:19:55;49.03;;;37.13;;
40611;SDS011;26317;44.894;20.286;2023-02-08T08:22:25;43.92;;;35.13;;
40611;SDS011;26317;44.894;20.286;2023-02-08T08:24:58;44.90;;;35.58;;
40611;SDS011;26317;44.894;20.286;2023-02-08T08:27:28;41.42;;;34.20;;
40611;SDS011;26317;44.894;20.286;2023-02-08T08:29:58;34.92;;;17.75;;
40611;SDS011;26317;44.894;20.286;2023-02-08T08:32:28;46.72;;;35.45;;
40611;SDS011;26317;44.894;20.286;2023-02-08T08:34:58;37.03;;;18.25;;
40611;SDS011;26317;44.894;20.286;2023-02-08T08:37:28;39.53;;;34.00;;
40611;SDS011;26317;44.894;20.286;2023-02-08T08:40:01;46.15;;;34.30;;
40611;SDS011;26317;44.894;20.286;2023-02-08T08:42:33;45.28;;;34.85;;
40611;SDS011;26317;44.894;20.286;2023-02-08T08:45:05;43.45;;;34.25;;
40611;SDS011;26317;44.894;20.286;2023-02-08T08:47:37;39.38;;;32.45;;
40611;SDS011;26317;44.894;20.286;2023-02-08T08:50:07;41.55;;;32.97;;
40611;SDS011;26317;44.894;20.286;2023-02-08T08:52:37;46.33;;;34.72;;
40611;SDS011;26317;44.894;20.286;2023-02-08T08:55:10;40.47;;;32.35;;
40611;SDS011;26317;44.894;20.286;2023-02-08T08:57:41;40.60;;;31.77;;
40611;SDS011;26317;44.894;20.286;2023-02-08T09:00:11;40.67;;;17.45;;
40611;SDS011;26317;44.894;20.286;2023-02-08T09:02:42;45.58;;;34.83;;
40611;SDS011;26317;44.894;20.286;2023-02-08T09:05:12;42.95;;;34.60;;
40611;SDS011;26317;44.894;20.286;2023-02-08T09:07:42;39.80;;;34.30;;
40611;SDS011;26317;44.894;20.286;2023-02-08T09:10:15;41.45;;;34.10;;
40611;SDS011;26317;44.894;20.286;2023-02-08T09:12:45;39.90;;;33.72;;
40611;SDS011;26317;44.894;20.286;2023-02-08T09:15:15;48.35;;;35.58;;
40611;SDS011;26317;44.894;20.286;2023-02-08T09:17:45;42.03;;;22.77;;
40611;SDS011;26317;44.894;20.286;2023-02-08T09:20:15;43.92;;;35.67;;
40611;SDS011;26317;44.894;20.286;2023-02-08T09:22:46;42.70;;;34.85;;
40611;SDS011;26317;44.894;20.286;2023-02-08T09:25:18;42.70;;;34.53;;
40611;SDS011;26317;44.894;20.286;2023-02-08T09:27:48;43.83;;;35.35;;
40611;SDS011;26317;44.894;20.286;2023-02-08T09:30:19;42.38;;;32.72;;
40611;SDS011;26317;44.894;20.286;2023-02-08T09:32:49;41.57;;;33.57;;
40611;SDS011;26317;44.894;20.286;2023-02-08T09:35:19;37.07;;;31.90;;
40611;SDS011;26317;44.894;20.286;2023-02-08T09:37:49;37.83;;;30.90;;
40611;SDS011;26317;44.894;20.286;2023-02-08T09:40:27;41.60;;;32.13;;
40611;SDS011;26317;44.894;20.286;2023-02-08T09:43:07;43.55;;;33.80;;
40611;SDS011;26317;44.894;20.286;2023-02-08T09:45:46;43.70;;;34.30;;
40611;SDS011;26317;44.894;20.286;2023-02-08T09:48:26;42.63;;;34.75;;
40611;SDS011;26317;44.894;20.286;2023-02-08T09:51:02;44.88;;;34.92;;
40611;SDS011;26317;44.894;20.286;2023-02-08T09:53:39;42.08;;;34.65;;
40611;SDS011;26317;44.894;20.286;2023-02-08T09:56:19;42.45;;;34.78;;
40611;SDS011;26317;44.894;20.286;2023-02-08T09:58:55;52.92;;;39.17;;
40611;SDS011;26317;44.894;20.286;2023-02-08T10:01:27;53.40;;;39.00;;
40611;SDS011;26317;44.894;20.286;2023-02-08T10:04:00;46.50;;;39.67;;
40611;SDS011;26317;44.894;20.286;2023-02-08T10:06:35;48.05;;;37.13;;
40611;SDS011;26317;44.894;20.286;2023-02-08T10:09:05;48.63;;;37.97;;
40611;SDS011;26317;44.894;20.286;2023-02-08T10:11:46;50.53;;;39.50;;
40611;SDS011;26317;44.894;20.286;2023-02-08T10:14:34;51.55;;;41.42;;
40611;SDS011;26317;44.894;20.286;2023-02-08T10:17:20;56.05;;;41.28;;
40611;SDS011;26317;44.894;20.286;2023-02-08T10:20:07;52.80;;;42.72;;
40611;SDS011;26317;44.894;20.286;2023-02-08T10:22:49;57.13;;;42.95;;
40611;SDS011;26317;44.894;20.286;2023-02-08T10:25:33;54.42;;;41.40;;
40611;SDS011;26317;44.894;20.286;2023-02-08T10:28:20;61.33;;;44.80;;
40611;SDS011;26317;44.894;20.286;2023-02-08T10:31:05;53.83;;;42.80;;
40611;SDS011;26317;44.894;20.286;2023-02-08T10:33:44;61.05;;;45.17;;
40611;SDS011;26317;44.894;20.286;2023-02-08T10:36:23;60.05;;;45.70;;
40611;SDS011;26317;44.894;20.286;2023-02-08T10:38:58;55.78;;;43.17;;
40611;SDS011;26317;44.894;20.286;2023-02-08T10:41:31;57.58;;;47.38;;
40611;SDS011;26317;44.894;20.286;2023-02-08T10:44:08;60.13;;;47.60;;
40611;SDS011;26317;44.894;20.286;2023-02-08T10:46:51;56.90;;;46.33;;
40611;SDS011;26317;44.894;20.286;2023-02-08T10:49:32;60.85;;;45.80;;
40611;SDS011;26317;44.894;20.286;2023-02-08T10:52:06;66.38;;;46.90;;
40611;SDS011;26317;44.894;20.286;2023-02-08T10:54:36;57.83;;;47.00;;
40611;SDS011;26317;44.894;20.286;2023-02-08T10:57:09;61.45;;;47.22;;
40611;SDS011;26317;44.894;20.286;2023-02-08T10:59:48;64.05;;;48.15;;
40611;SDS011;26317;44.894;20.286;2023-02-08T11:02:21;51.17;;;42.30;;
40611;SDS011;26317;44.894;20.286;2023-02-08T11:04:56;60.50;;;45.17;;
40611;SDS011;26317;44.894;20.286;2023-02-08T11:07:28;60.55;;;45.35;;
40611;SDS011;26317;44.894;20.286;2023-02-08T11:10:19;58.22;;;44.40;;
40611;SDS011;26317;44.894;20.286;2023-02-08T11:12:55;66.35;;;46.08;;
40611;SDS011;26317;44.894;20.286;2023-02-08T11:15:31;66.03;;;48.55;;
40611;SDS011;26317;44.894;20.286;2023-02-08T11:18:06;69.82;;;51.17;;
40611;SDS011;26317;44.894;20.286;2023-02-08T11:23:19;65.70;;;48.83;;
40611;SDS011;26317;44.894;20.286;2023-02-08T11:25:53;68.65;;;48.28;;
40611;SDS011;26317;44.894;20.286;2023-02-08T11:28:25;63.67;;;49.33;;
40611;SDS011;26317;44.894;20.286;2023-02-08T11:31:02;57.80;;;45.22;;
40611;SDS011;26317;44.894;20.286;2023-02-08T11:33:57;66.93;;;46.78;;
40611;SDS011;26317;44.894;20.286;2023-02-08T11:36:30;61.33;;;49.10;;
40611;SDS011;26317;44.894;20.286;2023-02-08T11:39:03;61.05;;;47.88;;
40611;SDS011;26317;44.894;20.286;2023-02-08T11:41:46;66.15;;;44.63;;
40611;SDS011;26317;44.894;20.286;2023-02-08T11:44:20;65.68;;;45.88;;
40611;SDS011;26317;44.894;20.286;2023-02-08T11:46:54;60.35;;;44.38;;
40611;SDS011;26317;44.894;20.286;2023-02-08T11:49:31;63.70;;;47.03;;
40611;SDS011;26317;44.894;20.286;2023-02-08T11:52:06;62.30;;;47.63;;
40611;SDS011;26317;44.894;20.286;2023-02-08T11:54:48;58.47;;;45.92;;
40611;SDS011;26317;44.894;20.286;2023-02-08T11:57:18;56.83;;;46.63;;
40611;SDS011;26317;44.894;20.286;2023-02-08T11:59:50;56.17;;;46.13;;
40611;SDS011;26317;44.894;20.286;2023-02-08T12:02:41;56.92;;;44.78;;
40611;SDS011;26317;44.894;20.286;2023-02-08T12:05:12;57.70;;;44.60;;
40611;SDS011;26317;44.894;20.286;2023-02-08T12:07:56;55.33;;;43.13;;
40611;SDS011;26317;44.894;20.286;2023-02-08T12:10:41;52.35;;;43.70;;
40611;SDS011;26317;44.894;20.286;2023-02-08T12:13:31;62.00;;;45.58;;
40611;SDS011;26317;44.894;20.286;2023-02-08T12:19:18;57.53;;;41.55;;
40611;SDS011;26317;44.894;20.286;2023-02-08T12:22:00;52.97;;;42.10;;
40611;SDS011;26317;44.894;20.286;2023-02-08T12:24:38;52.72;;;41.53;;
40611;SDS011;26317;44.894;20.286;2023-02-08T12:27:20;54.75;;;42.13;;
40611;SDS011;26317;44.894;20.286;2023-02-08T12:29:59;56.33;;;41.95;;
40611;SDS011;26317;44.894;20.286;2023-02-08T12:32:42;53.03;;;39.53;;
40611;SDS011;26317;44.894;20.286;2023-02-08T12:38:47;50.90;;;38.47;;
40611;SDS011;26317;44.894;20.286;2023-02-08T12:41:49;57.05;;;41.50;;
40611;SDS011;26317;44.894;20.286;2023-02-08T12:44:32;54.50;;;40.83;;
40611;SDS011;26317;44.894;20.286;2023-02-08T12:47:14;53.17;;;40.22;;
40611;SDS011;26317;44.894;20.286;2023-02-08T12:50:00;55.75;;;43.33;;
40611;SDS011;26317;44.894;20.286;2023-02-08T12:52:35;55.92;;;41.78;;
40611;SDS011;26317;44.894;20.286;2023-02-08T12:55:15;53.45;;;43.78;;
40611;SDS011;26317;44.894;20.286;2023-02-08T12:57:51;50.97;;;41.47;;
40611;SDS011;26317;44.894;20.286;2023-02-08T13:00:25;53.95;;;42.25;;
40611;SDS011;26317;44.894;20.286;2023-02-08T13:03:00;48.25;;;39.78;;
40611;SDS011;26317;44.894;20.286;2023-02-08T13:05:37;50.30;;;39.40;;
40611;SDS011;26317;44.894;20.286;2023-02-08T13:08:27;79.75;;;58.17;;
40611;SDS011;26317;44.894;20.286;2023-02-08T13:11:05;48.75;;;37.60;;
40611;SDS011;26317;44.894;20.286;2023-02-08T13:13:48;51.88;;;37.95;;
40611;SDS011;26317;44.894;20.286;2023-02-08T13:16:25;55.42;;;39.53;;
40611;SDS011;26317;44.894;20.286;2023-02-08T13:21:53;53.90;;;42.95;;
40611;SDS011;26317;44.894;20.286;2023-02-08T13:24:26;50.50;;;40.13;;
40611;SDS011;26317;44.894;20.286;2023-02-08T13:27:02;49.78;;;39.10;;
40611;SDS011;26317;44.894;20.286;2023-02-08T13:29:34;53.63;;;40.53;;
40611;SDS011;26317;44.894;20.286;2023-02-08T13:32:07;42.75;;;33.78;;
40611;SDS011;26317;44.894;20.286;2023-02-08T13:34:43;46.28;;;35.60;;
40611;SDS011;26317;44.894;20.286;2023-02-08T13:37:18;42.70;;;34.17;;
40611;SDS011;26317;44.894;20.286;2023-02-08T13:40:03;37.88;;;29.92;;
40611;SDS011;26317;44.894;20.286;2023-02-08T13:42:39;42.72;;;31.95;;
40611;SDS011;26317;44.894;20.286;2023-02-08T13:45:20;40.53;;;30.17;;
40611;SDS011;26317;44.894;20.286;2023-02-08T13:47:55;39.58;;;30.55;;
40611;SDS011;26317;44.894;20.286;2023-02-08T13:50:40;41.00;;;32.53;;
40611;SDS011;26317;44.894;20.286;2023-02-08T13:53:15;37.58;;;31.15;;
40611;SDS011;26317;44.894;20.286;2023-02-08T13:55:56;39.13;;;32.08;;
40611;SDS011;26317;44.894;20.286;2023-02-08T14:01:35;38.75;;;30.20;;
40611;SDS011;26317;44.894;20.286;2023-02-08T14:04:35;43.63;;;33.72;;
40611;SDS011;26317;44.894;20.286;2023-02-08T14:07:13;41.92;;;34.28;;
40611;SDS011;26317;44.894;20.286;2023-02-08T14:09:53;41.60;;;32.45;;
40611;SDS011;26317;44.894;20.286;2023-02-08T14:12:35;40.40;;;32.25;;
40611;SDS011;26317;44.894;20.286;2023-02-08T14:18:00;44.50;;;32.92;;
40611;SDS011;26317;44.894;20.286;2023-02-08T14:20:35;45.83;;;34.50;;
40611;SDS011;26317;44.894;20.286;2023-02-08T14:23:18;43.42;;;33.67;;
40611;SDS011;26317;44.894;20.286;2023-02-08T14:25:52;44.28;;;31.85;;
40611;SDS011;26317;44.894;20.286;2023-02-08T14:28:26;39.38;;;30.20;;
40611;SDS011;26317;44.894;20.286;2023-02-08T14:31:01;35.65;;;28.08;;
40611;SDS011;26317;44.894;20.286;2023-02-08T14:33:39;37.60;;;30.55;;
40611;SDS011;26317;44.894;20.286;2023-02-08T14:36:18;40.50;;;31.13;;
40611;SDS011;26317;44.894;20.286;2023-02-08T14:41:55;43.30;;;31.95;;
40611;SDS011;26317;44.894;20.286;2023-02-08T14:51:05;40.35;;;29.98;;
40611;SDS011;26317;44.894;20.286;2023-02-08T14:53:46;37.90;;;30.47;;
40611;SDS011;26317;44.894;20.286;2023-02-08T14:56:21;38.63;;;29.77;;
40611;SDS011;26317;44.894;20.286;2023-02-08T14:58:55;39.42;;;29.95;;
40611;SDS011;26317;44.894;20.286;2023-02-08T15:01:31;43.88;;;29.48;;
40611;SDS011;26317;44.894;20.286;2023-02-08T15:04:10;41.20;;;30.42;;
40611;SDS011;26317;44.894;20.286;2023-02-08T15:09:45;40.30;;;30.13;;
40611;SDS011;26317;44.894;20.286;2023-02-08T15:12:17;38.47;;;30.50;;
40611;SDS011;26317;44.894;20.286;2023-02-08T15:14:52;39.38;;;29.55;;
40611;SDS011;26317;44.894;20.286;2023-02-08T15:17:27;38.47;;;28.00;;
40611;SDS011;26317;44.894;20.286;2023-02-08T15:20:03;38.63;;;30.65;;
40611;SDS011;26317;44.894;20.286;2023-02-08T15:22:38;38.47;;;28.58;;
40611;SDS011;26317;44.894;20.286;2023-02-08T15:25:21;37.67;;;28.17;;
40611;SDS011;26317;44.894;20.286;2023-02-08T15:27:53;35.72;;;27.17;;
40611;SDS011;26317;44.894;20.286;2023-02-08T15:30:27;34.50;;;27.92;;